KSAR/SAR METAR and TAF weather

Enter ICAO airport designator
Station Type Date Time Source
KSAR METAR 2019/10/23 03:15 UTC NOAA

KSAR 230315Z AUTO 27004KT 10SM CLR 09/01 A3004 RMK AO2 T00940008


Station Type Date Time Source
KSAR Decoded METAR 2019/10/23 03:15 UTC NOAA

Sparta, Sparta Community-Hunter Field Airport, IL, United States (KSAR) 38-08-56N 089-41-55W
Oct 22, 2019 - 11:15 PM EDT / 2019.10.23 0315 UTC
Wind: from the W (270 degrees) at 5 MPH (4 KT):0
Visibility: 10 mile(s):0
Sky conditions: clear
Temperature: 48.9 F (9.4 C)
Dew Point: 33.4 F (0.8 C)
Relative Humidity: 54%
Pressure (altimeter): 30.04 in. Hg (1017 hPa)
ob: KSAR 230315Z AUTO 27004KT 10SM CLR 09/01 A3004 RMK AO2 T00940008
cycle: 3

Station Type Date Time Source
KSAR TAF UTC NOAA

Error!

Example: see airport list